createdAt,value
2022-08-05T00:01:27.756Z,28.13
2022-08-05T00:03:56.988Z,28.16
2022-08-05T00:06:30.676Z,28.13
2022-08-05T00:09:00.886Z,28.10
2022-08-05T00:11:34.682Z,28.06
2022-08-05T00:14:12.981Z,27.98
2022-08-05T00:16:52.670Z,27.91
2022-08-05T00:19:24.911Z,27.94
2022-08-05T00:22:00.005Z,27.99
2022-08-05T00:24:31.014Z,27.96
2022-08-05T00:27:04.637Z,27.89
2022-08-05T00:29:37.965Z,27.86
2022-08-05T00:32:12.278Z,27.80
2022-08-05T00:35:03.826Z,27.81
2022-08-05T00:37:50.737Z,27.89
2022-08-05T00:40:28.240Z,27.88
2022-08-05T00:43:00.719Z,27.84
2022-08-05T00:45:42.849Z,27.82
2022-08-05T00:48:12.525Z,27.81
2022-08-05T00:50:41.891Z,27.74
2022-08-05T00:53:59.933Z,27.76
2022-08-05T00:55:58.154Z,27.81
2022-08-05T00:58:27.472Z,27.81
2022-08-05T01:00:56.017Z,27.75
2022-08-05T01:03:24.234Z,27.67
2022-08-05T01:05:57.958Z,27.66
2022-08-05T01:08:40.761Z,27.68
2022-08-05T01:11:22.613Z,27.69
2022-08-05T01:14:15.558Z,27.70
2022-08-05T01:16:59.123Z,27.60
2022-08-05T01:20:01.940Z,27.48
2022-08-05T01:22:34.096Z,27.50
2022-08-05T01:25:23.013Z,27.57
2022-08-05T01:28:04.862Z,27.53
2022-08-05T01:30:38.221Z,27.51
2022-08-05T01:33:08.641Z,27.44
2022-08-05T01:35:51.153Z,27.40
2022-08-05T01:38:27.147Z,27.39
2022-08-05T01:40:59.864Z,27.40
2022-08-05T01:43:28.921Z,27.39
2022-08-05T01:45:57.159Z,27.32
2022-08-05T01:48:26.948Z,27.25
2022-08-05T01:50:54.186Z,27.24
2022-08-05T01:53:55.139Z,27.09
2022-08-05T01:56:09.792Z,26.98
2022-08-05T01:58:45.172Z,26.99
2022-08-05T02:01:25.361Z,26.98
2022-08-05T02:03:55.886Z,26.93
2022-08-05T02:06:37.910Z,26.86
2022-08-05T02:09:06.442Z,26.82
2022-08-05T02:11:42.142Z,26.84
2022-08-05T02:14:12.908Z,26.81
2022-08-05T02:16:45.862Z,26.77
2022-08-05T02:19:27.491Z,26.71
2022-08-05T02:22:25.822Z,26.68
2022-08-05T02:25:00.177Z,26.55
2022-08-05T02:27:30.111Z,26.49
2022-08-05T02:30:14.558Z,26.46
2022-08-05T02:32:43.650Z,26.45
2022-08-05T02:35:14.255Z,26.46
2022-08-05T02:37:43.022Z,26.42
2022-08-05T02:40:16.634Z,26.38
2022-08-05T02:42:43.947Z,26.35
2022-08-05T02:45:20.785Z,26.39
2022-08-05T02:48:07.515Z,26.31
2022-08-05T02:50:43.994Z,26.27
2022-08-05T02:53:18.849Z,26.27
2022-08-05T02:55:54.169Z,26.34
2022-08-05T02:58:23.035Z,26.36
2022-08-05T03:00:55.929Z,26.31
2022-08-05T03:03:23.528Z,26.31
2022-08-05T03:06:56.097Z,26.32
2022-08-05T03:08:42.618Z,26.27
2022-08-05T03:11:56.620Z,26.29
2022-08-05T03:14:13.591Z,26.36
2022-08-05T03:16:40.654Z,26.44
2022-08-05T03:19:12.918Z,26.48
2022-08-05T03:21:48.842Z,26.42
2022-08-05T03:24:18.689Z,26.43
2022-08-05T03:26:58.077Z,26.41
2022-08-05T03:29:24.751Z,26.25
2022-08-05T03:32:12.001Z,26.19
2022-08-05T03:34:41.258Z,26.15
2022-08-05T03:37:07.941Z,26.11
2022-08-05T03:39:38.297Z,26.11
2022-08-05T03:42:21.382Z,26.00
2022-08-05T03:44:54.117Z,26.01
2022-08-05T03:47:21.175Z,25.97
2022-08-05T03:49:51.715Z,25.99
2022-08-05T03:52:49.155Z,26.04
2022-08-05T03:56:05.165Z,26.01
2022-08-05T03:58:11.022Z,25.80
2022-08-05T04:00:39.263Z,25.84
2022-08-05T04:03:15.006Z,25.86
2022-08-05T04:05:59.062Z,25.89
2022-08-05T04:08:35.053Z,25.92
2022-08-05T04:11:04.754Z,25.91
2022-08-05T04:13:49.727Z,25.84
2022-08-05T04:16:25.462Z,25.82
2022-08-05T04:19:00.078Z,25.79
2022-08-05T04:22:09.812Z,25.69
2022-08-05T04:24:19.396Z,25.61
2022-08-05T04:26:50.030Z,25.68
2022-08-05T04:29:17.087Z,25.72
2022-08-05T04:31:43.854Z,25.66
2022-08-05T04:34:19.047Z,25.56
2022-08-05T04:36:57.855Z,25.65
2022-08-05T04:39:24.605Z,25.66
2022-08-05T04:41:54.585Z,25.55
2022-08-05T04:44:29.276Z,25.43
2022-08-05T04:47:09.012Z,25.32
2022-08-05T04:50:01.645Z,25.24
2022-08-05T04:52:29.104Z,25.24
2022-08-05T04:55:00.189Z,25.24
2022-08-05T04:57:40.801Z,25.21
2022-08-05T05:00:15.294Z,25.25
2022-08-05T05:02:43.601Z,25.25
2022-08-05T05:05:26.363Z,25.26
2022-08-05T05:08:00.919Z,25.26
2022-08-05T05:10:30.127Z,25.26
2022-08-05T05:12:57.722Z,25.31
2022-08-05T05:15:57.436Z,25.37
2022-08-05T05:18:15.284Z,25.26
2022-08-05T05:20:55.245Z,25.18
2022-08-05T05:23:21.870Z,25.10
2022-08-05T05:25:48.561Z,25.07
2022-08-05T05:28:15.236Z,25.04
2022-08-05T05:30:42.420Z,25.02
2022-08-05T05:33:16.970Z,25.01
2022-08-05T05:35:45.609Z,25.04
2022-08-05T05:38:13.308Z,25.06
2022-08-05T05:40:50.068Z,25.07
2022-08-05T05:43:22.406Z,25.10
2022-08-05T05:46:13.684Z,25.16
2022-08-05T05:48:43.958Z,25.18
2022-08-05T05:51:15.209Z,25.24
2022-08-05T05:53:54.467Z,25.24
2022-08-05T05:56:33.234Z,25.24
2022-08-05T05:59:07.624Z,25.21
2022-08-05T06:01:40.185Z,25.23
2022-08-05T06:04:12.686Z,25.22
2022-08-05T06:06:47.423Z,25.21
2022-08-05T06:09:17.532Z,25.18
2022-08-05T06:12:01.386Z,25.16
2022-08-05T06:14:34.696Z,25.19
2022-08-05T06:17:22.062Z,25.28
2022-08-05T06:19:56.787Z,25.41
2022-08-05T06:22:28.795Z,25.46
2022-08-05T06:24:55.895Z,25.49
2022-08-05T06:28:11.467Z,25.51
2022-08-05T06:30:16.808Z,25.52
2022-08-05T06:32:48.104Z,25.50
2022-08-05T06:36:03.017Z,25.48
2022-08-05T06:38:11.696Z,25.51
2022-08-05T06:40:42.254Z,25.57
2022-08-05T06:43:57.544Z,25.65
2022-08-05T06:46:04.053Z,25.73
2022-08-05T06:48:56.186Z,25.79
2022-08-05T06:51:29.481Z,25.85
2022-08-05T06:53:58.936Z,25.89
2022-08-05T06:56:27.031Z,25.92
2022-08-05T06:58:55.017Z,25.95
2022-08-05T07:01:22.649Z,25.98
2022-08-05T07:03:49.982Z,26.01
2022-08-05T07:06:17.441Z,26.03
2022-08-05T07:08:51.696Z,26.04
2022-08-05T07:11:22.227Z,26.05
2022-08-05T07:14:15.360Z,26.06
2022-08-05T07:18:01.835Z,26.08
2022-08-05T07:22:28.540Z,26.18
2022-08-05T07:25:23.376Z,26.20
2022-08-05T07:27:57.305Z,26.27
2022-08-05T07:30:34.311Z,26.29
2022-08-05T07:33:09.066Z,26.32
2022-08-05T07:36:03.694Z,26.34
2022-08-05T07:38:34.237Z,26.36
2022-08-05T07:41:35.168Z,26.26
2022-08-05T07:43:57.496Z,26.24
2022-08-05T07:46:29.174Z,26.30
2022-08-05T07:49:01.798Z,26.39
2022-08-05T07:51:48.711Z,26.44
2022-08-05T07:54:26.424Z,26.51
2022-08-05T07:57:13.886Z,26.54
2022-08-05T07:59:41.221Z,26.60
2022-08-05T08:02:15.968Z,26.62
2022-08-05T08:04:45.428Z,26.67
2022-08-05T08:07:13.525Z,26.70
2022-08-05T08:09:40.618Z,26.73
2022-08-05T08:12:35.429Z,26.75
2022-08-05T08:14:54.327Z,26.80
2022-08-05T08:17:21.602Z,26.82
2022-08-05T08:20:44.014Z,26.85
2022-08-05T08:22:35.786Z,26.76
2022-08-05T08:25:03.949Z,26.78
2022-08-05T08:27:44.988Z,26.79
2022-08-05T08:30:30.187Z,26.75
2022-08-05T08:33:04.515Z,26.67
2022-08-05T08:35:41.596Z,26.75
2022-08-05T08:38:35.094Z,26.70
2022-08-05T08:41:07.344Z,26.79
2022-08-05T08:45:16.503Z,26.88
2022-08-05T08:46:24.359Z,27.00
2022-08-05T08:49:07.900Z,27.06
2022-08-05T08:52:03.171Z,27.02
2022-08-05T08:54:27.261Z,27.01
2022-08-05T08:56:54.447Z,27.01
2022-08-05T08:59:27.708Z,27.08
2022-08-05T09:02:01.800Z,27.11
2022-08-05T09:04:30.134Z,27.18
2022-08-05T09:06:58.469Z,27.22
2022-08-05T09:09:26.082Z,27.26
2022-08-05T09:12:20.722Z,27.32
2022-08-05T09:14:58.318Z,27.39
2022-08-05T09:17:42.717Z,27.44
2022-08-05T09:20:13.264Z,27.42
2022-08-05T09:23:18.470Z,27.43
2022-08-05T09:26:02.659Z,27.48
2022-08-05T09:28:33.492Z,27.50
2022-08-05T09:31:43.286Z,27.55
2022-08-05T09:33:59.340Z,27.63
2022-08-05T09:36:59.387Z,27.65
2022-08-05T09:39:41.485Z,27.72
2022-08-05T09:42:24.131Z,27.74
2022-08-05T09:44:57.214Z,27.73
2022-08-05T09:47:48.061Z,27.72
2022-08-05T09:50:36.072Z,27.77
2022-08-05T09:53:05.765Z,27.84
2022-08-05T09:55:56.619Z,27.85
2022-08-05T09:58:23.268Z,27.91
2022-08-05T10:01:14.750Z,27.92
2022-08-05T10:04:00.101Z,27.97
2022-08-05T10:06:28.218Z,27.99
2022-08-05T10:08:55.791Z,28.01
2022-08-05T10:11:22.961Z,28.02
2022-08-05T10:13:54.538Z,28.05
2022-08-05T10:16:41.635Z,28.05
2022-08-05T10:19:10.218Z,28.10
2022-08-05T10:21:40.255Z,28.17
2022-08-05T10:24:13.517Z,28.22
2022-08-05T10:26:51.244Z,28.18
2022-08-05T10:29:24.179Z,28.17
2022-08-05T10:32:51.579Z,28.29
2022-08-05T10:35:01.098Z,28.31
2022-08-05T10:37:40.363Z,28.30
2022-08-05T10:40:38.999Z,28.28
2022-08-05T10:43:48.602Z,28.24
2022-08-05T10:46:18.407Z,28.24
2022-08-05T10:49:08.109Z,28.30
2022-08-05T10:51:48.610Z,28.32
2022-08-05T10:54:56.151Z,28.33
2022-08-05T10:57:31.001Z,28.41
2022-08-05T11:00:20.670Z,28.42
2022-08-05T11:03:23.448Z,28.40
2022-08-05T11:06:15.674Z,28.43
2022-08-05T11:09:10.957Z,28.44
2022-08-05T11:11:52.433Z,28.48
2022-08-05T11:14:42.906Z,28.51
2022-08-05T11:18:09.525Z,28.61
2022-08-05T11:20:32.507Z,28.66
2022-08-05T11:23:05.752Z,28.64
2022-08-05T11:26:04.584Z,28.59
2022-08-05T11:28:32.937Z,28.56
2022-08-05T11:31:06.540Z,28.61
2022-08-05T11:33:46.553Z,28.58
2022-08-05T11:36:34.617Z,28.61
2022-08-05T11:39:08.472Z,28.71
2022-08-05T11:42:01.322Z,28.64
2022-08-05T11:44:52.810Z,28.62
2022-08-05T11:47:17.360Z,28.64
2022-08-05T11:49:49.717Z,28.70
2022-08-05T11:52:31.001Z,28.78
2022-08-05T11:54:58.884Z,28.85
2022-08-05T11:57:30.633Z,28.80
2022-08-05T12:00:25.906Z,28.83
2022-08-05T12:02:56.554Z,28.85
2022-08-05T12:05:36.147Z,28.83
2022-08-05T12:08:10.832Z,28.87
2022-08-05T12:10:45.177Z,28.90
2022-08-05T12:13:28.042Z,28.88
2022-08-05T12:16:14.484Z,28.91
2022-08-05T12:18:42.596Z,28.83
2022-08-05T12:21:18.789Z,28.80
2022-08-05T12:24:07.788Z,28.78
2022-08-05T12:26:44.112Z,28.85
2022-08-05T12:29:39.034Z,28.88
2022-08-05T12:32:07.441Z,28.92
2022-08-05T12:34:37.707Z,28.82
2022-08-05T12:37:16.969Z,28.81
2022-08-05T12:39:45.002Z,28.74
2022-08-05T12:42:19.982Z,28.67
2022-08-05T12:44:47.606Z,28.69
2022-08-05T12:47:26.356Z,28.80
2022-08-05T12:50:04.430Z,28.78
2022-08-05T12:52:41.676Z,28.81
2022-08-05T12:55:25.605Z,28.89
2022-08-05T12:58:48.552Z,28.90
2022-08-05T13:02:03.859Z,29.00
2022-08-05T13:03:31.920Z,29.05
2022-08-05T13:06:01.060Z,29.04
2022-08-05T13:08:32.439Z,29.00
2022-08-05T13:11:04.325Z,28.92
2022-08-05T13:14:05.789Z,28.97
2022-08-05T13:16:19.546Z,29.04
2022-08-05T13:18:55.181Z,28.95
2022-08-05T13:21:28.247Z,28.84
2022-08-05T13:24:08.591Z,28.85
2022-08-05T13:26:35.979Z,28.85
2022-08-05T13:29:02.750Z,28.77
2022-08-05T13:31:33.700Z,28.66
2022-08-05T13:34:25.561Z,28.61
2022-08-05T13:36:53.967Z,28.62
2022-08-05T13:40:14.631Z,28.65
2022-08-05T13:42:14.658Z,28.68
2022-08-05T13:44:45.413Z,28.68
2022-08-05T13:47:35.119Z,28.65
2022-08-05T13:50:01.349Z,28.64
2022-08-05T13:52:35.244Z,28.58
2022-08-05T13:55:07.440Z,28.63
2022-08-05T13:57:48.512Z,28.59
2022-08-05T14:00:31.891Z,28.80
2022-08-05T14:03:01.118Z,29.93
2022-08-05T14:05:48.473Z,30.46
2022-08-05T14:08:21.284Z,30.85
2022-08-05T14:10:59.695Z,30.89
2022-08-05T14:14:00.486Z,31.28
2022-08-05T14:16:29.060Z,31.31
2022-08-05T14:18:56.756Z,31.29
2022-08-05T14:22:09.688Z,31.03
2022-08-05T14:24:12.297Z,30.83
2022-08-05T14:26:51.378Z,30.62
2022-08-05T14:29:23.251Z,30.70
2022-08-05T14:32:02.857Z,30.76
2022-08-05T14:34:39.595Z,30.53
2022-08-05T14:37:07.109Z,30.45
2022-08-05T14:39:50.051Z,30.46
2022-08-05T14:42:29.375Z,30.39
2022-08-05T14:44:56.689Z,30.29
2022-08-05T14:48:02.745Z,30.32
2022-08-05T14:50:17.181Z,30.22
2022-08-05T14:52:57.635Z,30.28
2022-08-05T14:55:38.481Z,30.51
2022-08-05T14:58:11.321Z,30.76
2022-08-05T15:00:57.975Z,30.77
2022-08-05T15:03:33.268Z,30.60
2022-08-05T15:06:07.426Z,30.25
2022-08-05T15:09:01.370Z,30.01
2022-08-05T15:11:51.525Z,29.70
2022-08-05T15:14:34.247Z,29.43
2022-08-05T15:17:03.995Z,29.25
2022-08-05T15:19:32.737Z,29.32
2022-08-05T15:22:01.343Z,29.16
2022-08-05T15:24:30.444Z,29.07
2022-08-05T15:26:57.838Z,29.04
2022-08-05T15:29:30.239Z,28.97
2022-08-05T15:32:02.379Z,28.73
2022-08-05T15:34:41.638Z,28.52
2022-08-05T15:41:01.991Z,28.31
2022-08-05T15:43:12.768Z,28.31
2022-08-05T15:45:45.791Z,28.35
2022-08-05T15:48:17.916Z,28.39
2022-08-05T15:50:48.924Z,28.49
2022-08-05T15:53:38.257Z,28.78
2022-08-05T15:56:25.871Z,28.94
2022-08-05T15:58:58.434Z,28.77
2022-08-05T16:01:29.494Z,28.68
2022-08-05T16:04:11.350Z,28.74
2022-08-05T16:06:46.340Z,28.88
2022-08-05T16:09:14.305Z,29.13
2022-08-05T16:11:43.363Z,29.23
2022-08-05T16:14:17.217Z,29.66
2022-08-05T16:16:45.251Z,29.72
2022-08-05T16:19:18.946Z,29.77
2022-08-05T16:22:03.024Z,30.50
2022-08-05T16:24:41.532Z,30.11
2022-08-05T16:27:17.772Z,29.78
2022-08-05T16:29:50.407Z,29.61
2022-08-05T16:32:28.250Z,29.49
2022-08-05T16:34:55.873Z,29.48
2022-08-05T16:38:01.997Z,29.48
2022-08-05T16:40:20.258Z,29.47
2022-08-05T16:42:53.266Z,29.40
2022-08-05T16:46:07.623Z,29.41
2022-08-05T16:48:06.821Z,29.49
2022-08-05T16:50:37.557Z,29.57
2022-08-05T16:53:12.709Z,29.86
2022-08-05T16:55:50.195Z,30.12
2022-08-05T16:58:19.926Z,30.16
2022-08-05T17:00:48.171Z,30.31
2022-08-05T17:03:20.603Z,30.21
2022-08-05T17:05:53.574Z,30.08
2022-08-05T17:08:36.162Z,29.95
2022-08-05T17:11:12.867Z,30.56
2022-08-05T17:13:44.054Z,30.52
2022-08-05T17:16:30.149Z,30.22
2022-08-05T17:18:57.508Z,30.35
2022-08-05T17:21:24.217Z,30.21
2022-08-05T17:24:05.924Z,29.82
2022-08-05T17:26:39.163Z,29.30
2022-08-05T17:29:09.897Z,28.81
2022-08-05T17:31:56.888Z,28.50
2022-08-05T17:34:29.564Z,28.32
2022-08-05T17:36:59.042Z,28.09
2022-08-05T17:39:34.202Z,27.81
2022-08-05T17:42:17.557Z,27.65
2022-08-05T17:44:50.954Z,27.49
2022-08-05T17:47:22.580Z,27.37
2022-08-05T17:50:03.577Z,27.23
2022-08-05T17:52:34.850Z,27.14
2022-08-05T17:55:21.423Z,27.12
2022-08-05T17:57:48.557Z,27.13
2022-08-05T18:00:17.351Z,27.12
2022-08-05T18:02:46.760Z,27.14
2022-08-05T18:05:17.006Z,27.21
2022-08-05T18:07:44.699Z,27.12
2022-08-05T18:10:20.369Z,27.08
2022-08-05T18:12:49.376Z,27.04
2022-08-05T18:15:16.237Z,26.94
2022-08-05T18:18:00.830Z,26.86
2022-08-05T18:20:32.136Z,26.76
2022-08-05T18:23:09.432Z,26.69
2022-08-05T18:25:44.977Z,26.62
2022-08-05T18:28:16.114Z,26.64
2022-08-05T18:30:51.149Z,26.62
2022-08-05T18:33:22.941Z,26.70
2022-08-05T18:36:04.911Z,26.76
2022-08-05T18:38:36.174Z,26.86
2022-08-05T18:41:53.654Z,26.80
2022-08-05T18:43:52.688Z,26.73
2022-08-05T18:46:20.124Z,26.76
2022-08-05T18:48:52.035Z,26.80
2022-08-05T18:52:02.734Z,26.78
2022-08-05T18:54:31.290Z,26.76
2022-08-05T18:57:00.874Z,26.70
2022-08-05T18:59:44.036Z,26.66
2022-08-05T19:02:27.104Z,26.63
2022-08-05T19:05:02.614Z,26.58
2022-08-05T19:07:46.725Z,26.51
2022-08-05T19:10:28.459Z,26.44
2022-08-05T19:12:56.669Z,26.42
2022-08-05T19:15:57.819Z,26.40
2022-08-05T19:18:20.760Z,26.37
2022-08-05T19:20:52.021Z,26.35
2022-08-05T19:24:04.235Z,26.37
2022-08-05T19:26:08.437Z,26.37
2022-08-05T19:28:41.526Z,26.29
2022-08-05T19:31:09.502Z,26.29
2022-08-05T19:33:55.687Z,26.21
2022-08-05T19:36:29.300Z,26.01
2022-08-05T19:39:03.810Z,25.73
2022-08-05T19:42:05.661Z,25.54
2022-08-05T19:44:19.127Z,25.52
2022-08-05T19:46:46.190Z,25.41
2022-08-05T19:49:17.127Z,25.44
2022-08-05T19:52:05.390Z,25.44
2022-08-05T19:54:34.053Z,25.35
2022-08-05T19:57:06.613Z,25.28
2022-08-05T19:59:56.320Z,25.33
2022-08-05T20:02:26.178Z,25.31
2022-08-05T20:04:55.369Z,25.23
2022-08-05T20:07:47.311Z,25.20
2022-08-05T20:10:14.310Z,25.04
2022-08-05T20:12:48.206Z,25.00
2022-08-05T20:15:23.220Z,24.97
2022-08-05T20:18:10.238Z,24.96
2022-08-05T20:20:51.822Z,24.83
2022-08-05T20:23:22.431Z,24.87
2022-08-05T20:25:49.245Z,24.89
2022-08-05T20:28:19.160Z,24.79
2022-08-05T20:30:46.550Z,24.71
2022-08-05T20:33:16.502Z,24.71
2022-08-05T20:35:45.501Z,24.71
2022-08-05T20:38:14.407Z,24.68
2022-08-05T20:40:50.508Z,24.66
2022-08-05T20:43:17.530Z,24.67
2022-08-05T20:46:04.231Z,24.72
2022-08-05T20:48:30.922Z,24.72
2022-08-05T20:50:57.612Z,24.66
2022-08-05T20:53:37.012Z,24.63
2022-08-05T20:56:09.638Z,24.59
2022-08-05T20:58:36.835Z,24.54
2022-08-05T21:01:05.204Z,24.55
2022-08-05T21:03:34.734Z,24.54
2022-08-05T21:06:01.932Z,24.49
2022-08-05T21:08:42.301Z,24.50
2022-08-05T21:11:12.588Z,24.52
2022-08-05T21:13:47.931Z,24.52
2022-08-05T21:16:23.115Z,24.52
2022-08-05T21:18:56.951Z,24.61
2022-08-05T21:21:26.993Z,24.69
2022-08-05T21:24:12.731Z,24.66
2022-08-05T21:26:41.485Z,24.65
2022-08-05T21:29:12.586Z,24.71
2022-08-05T21:31:43.619Z,24.75
2022-08-05T21:34:11.116Z,24.74
2022-08-05T21:36:38.478Z,24.76
2022-08-05T21:39:05.589Z,24.79
2022-08-05T21:41:35.706Z,24.82
2022-08-05T21:44:04.771Z,24.80
2022-08-05T21:46:34.362Z,24.78
2022-08-05T21:49:07.255Z,24.69
2022-08-05T21:52:22.259Z,24.55
2022-08-05T21:54:27.801Z,24.49
2022-08-05T21:57:29.270Z,24.46
2022-08-05T22:00:02.087Z,24.47
2022-08-05T22:02:39.384Z,24.47
2022-08-05T22:05:09.303Z,24.41
2022-08-05T22:07:39.772Z,24.35
2022-08-05T22:10:26.603Z,24.19
2022-08-05T22:12:57.285Z,24.13
2022-08-05T22:16:02.756Z,24.13
2022-08-05T22:18:11.589Z,24.15
2022-08-05T22:20:39.201Z,24.18
2022-08-05T22:24:03.171Z,24.15
2022-08-05T22:26:31.106Z,24.05
2022-08-05T22:28:58.090Z,24.02
2022-08-05T22:31:30.260Z,23.90
2022-08-05T22:34:01.634Z,23.84
2022-08-05T22:36:29.228Z,23.79
2022-08-05T22:38:56.351Z,23.76
2022-08-05T22:42:04.834Z,23.63
2022-08-05T22:44:11.990Z,23.55
2022-08-05T22:46:40.641Z,23.54
2022-08-05T22:49:12.161Z,23.62
2022-08-05T22:52:05.559Z,23.63
2022-08-05T22:54:38.896Z,23.56
2022-08-05T22:57:06.186Z,23.53
2022-08-05T22:59:46.567Z,23.52
2022-08-05T23:02:18.468Z,23.53
2022-08-05T23:04:57.913Z,23.38
2022-08-05T23:07:28.786Z,23.40
2022-08-05T23:10:02.096Z,23.31
2022-08-05T23:12:32.421Z,23.32
2022-08-05T23:15:08.827Z,23.38
2022-08-05T23:18:00.157Z,23.45
2022-08-05T23:20:24.378Z,23.48
2022-08-05T23:22:55.713Z,23.45
2022-08-05T23:25:52.345Z,23.44
2022-08-05T23:28:09.767Z,23.46
2022-08-05T23:30:40.437Z,23.43
2022-08-05T23:33:16.181Z,23.46
2022-08-05T23:35:50.345Z,23.43
2022-08-05T23:38:17.228Z,23.34
2022-08-05T23:40:50.247Z,23.13
2022-08-05T23:43:25.686Z,23.10
2022-08-05T23:46:21.321Z,22.97
2022-08-05T23:49:00.440Z,22.83
2022-08-05T23:51:54.295Z,22.72
2022-08-05T23:54:25.837Z,22.63
2022-08-05T23:56:54.622Z,22.57
2022-08-05T23:59:22.185Z,22.45
